sensor_id;sensor_type;location;lat;lon;timestamp;P1;durP1;ratioP1;P2;durP2;ratioP2
59492;SDS011;45497;43.996;22.876;2022-11-02T00:00:48;25.48;;;15.98;;
59492;SDS011;45497;43.996;22.876;2022-11-02T00:03:14;22.90;;;15.82;;
59492;SDS011;45497;43.996;22.876;2022-11-02T00:05:39;22.55;;;14.95;;
59492;SDS011;45497;43.996;22.876;2022-11-02T00:08:05;22.53;;;14.93;;
59492;SDS011;45497;43.996;22.876;2022-11-02T00:10:30;22.58;;;15.60;;
59492;SDS011;45497;43.996;22.876;2022-11-02T00:12:56;20.67;;;14.50;;
59492;SDS011;45497;43.996;22.876;2022-11-02T00:15:23;21.45;;;14.27;;
59492;SDS011;45497;43.996;22.876;2022-11-02T00:17:52;23.70;;;14.80;;
59492;SDS011;45497;43.996;22.876;2022-11-02T00:20:23;19.20;;;14.18;;
59492;SDS011;45497;43.996;22.876;2022-11-02T00:22:50;19.10;;;13.93;;
59492;SDS011;45497;43.996;22.876;2022-11-02T00:25:20;21.42;;;14.27;;
59492;SDS011;45497;43.996;22.876;2022-11-02T00:27:47;21.73;;;14.32;;
59492;SDS011;45497;43.996;22.876;2022-11-02T00:30:13;22.73;;;14.67;;
59492;SDS011;45497;43.996;22.876;2022-11-02T00:32:38;19.37;;;13.90;;
59492;SDS011;45497;43.996;22.876;2022-11-02T00:35:04;21.40;;;13.67;;
59492;SDS011;45497;43.996;22.876;2022-11-02T00:37:30;22.08;;;13.85;;
59492;SDS011;45497;43.996;22.876;2022-11-02T00:39:56;20.63;;;13.52;;
59492;SDS011;45497;43.996;22.876;2022-11-02T00:42:21;22.23;;;13.63;;
59492;SDS011;45497;43.996;22.876;2022-11-02T00:44:47;17.33;;;14.07;;
59492;SDS011;45497;43.996;22.876;2022-11-02T00:47:12;19.00;;;14.65;;
59492;SDS011;45497;43.996;22.876;2022-11-02T00:49:38;20.97;;;13.83;;
59492;SDS011;45497;43.996;22.876;2022-11-02T00:52:04;21.90;;;14.53;;
59492;SDS011;45497;43.996;22.876;2022-11-02T00:54:30;20.15;;;13.48;;
59492;SDS011;45497;43.996;22.876;2022-11-02T00:56:55;21.92;;;14.20;;
59492;SDS011;45497;43.996;22.876;2022-11-02T00:59:21;20.70;;;14.03;;
59492;SDS011;45497;43.996;22.876;2022-11-02T01:01:46;19.20;;;12.97;;
59492;SDS011;45497;43.996;22.876;2022-11-02T01:04:13;21.02;;;14.50;;
59492;SDS011;45497;43.996;22.876;2022-11-02T01:06:40;19.45;;;13.80;;
59492;SDS011;45497;43.996;22.876;2022-11-02T01:09:06;22.87;;;13.70;;
59492;SDS011;45497;43.996;22.876;2022-11-02T01:11:33;20.55;;;14.25;;
59492;SDS011;45497;43.996;22.876;2022-11-02T01:13:59;19.88;;;14.02;;
59492;SDS011;45497;43.996;22.876;2022-11-02T01:16:24;20.73;;;13.50;;
59492;SDS011;45497;43.996;22.876;2022-11-02T01:18:50;19.73;;;14.17;;
59492;SDS011;45497;43.996;22.876;2022-11-02T01:21:17;18.35;;;13.93;;
59492;SDS011;45497;43.996;22.876;2022-11-02T01:23:43;19.83;;;13.77;;
59492;SDS011;45497;43.996;22.876;2022-11-02T01:26:09;20.53;;;14.53;;
59492;SDS011;45497;43.996;22.876;2022-11-02T01:28:35;19.55;;;14.32;;
59492;SDS011;45497;43.996;22.876;2022-11-02T01:31:01;19.60;;;13.87;;
59492;SDS011;45497;43.996;22.876;2022-11-02T01:33:27;22.80;;;13.97;;
59492;SDS011;45497;43.996;22.876;2022-11-02T01:35:53;22.53;;;13.93;;
59492;SDS011;45497;43.996;22.876;2022-11-02T01:38:19;21.67;;;13.90;;
59492;SDS011;45497;43.996;22.876;2022-11-02T01:40:45;21.45;;;14.23;;
59492;SDS011;45497;43.996;22.876;2022-11-02T01:43:17;22.23;;;14.40;;
59492;SDS011;45497;43.996;22.876;2022-11-02T01:49:06;19.05;;;13.65;;
59492;SDS011;45497;43.996;22.876;2022-11-02T01:51:35;21.67;;;14.93;;
59492;SDS011;45497;43.996;22.876;2022-11-02T01:54:17;22.73;;;15.15;;
59492;SDS011;45497;43.996;22.876;2022-11-02T01:56:47;20.08;;;15.20;;
59492;SDS011;45497;43.996;22.876;2022-11-02T01:59:20;23.15;;;15.07;;
59492;SDS011;45497;43.996;22.876;2022-11-02T02:01:50;24.88;;;16.08;;
59492;SDS011;45497;43.996;22.876;2022-11-02T02:04:16;24.87;;;15.97;;
59492;SDS011;45497;43.996;22.876;2022-11-02T02:06:41;22.27;;;16.30;;
59492;SDS011;45497;43.996;22.876;2022-11-02T02:09:08;21.30;;;14.90;;
59492;SDS011;45497;43.996;22.876;2022-11-02T02:11:35;23.67;;;15.18;;
59492;SDS011;45497;43.996;22.876;2022-11-02T02:16:45;23.57;;;15.33;;
59492;SDS011;45497;43.996;22.876;2022-11-02T02:19:31;22.17;;;15.32;;
59492;SDS011;45497;43.996;22.876;2022-11-02T02:31:11;24.33;;;15.30;;
59492;SDS011;45497;43.996;22.876;2022-11-02T02:36:33;23.65;;;15.25;;
59492;SDS011;45497;43.996;22.876;2022-11-02T02:39:24;23.88;;;15.20;;
59492;SDS011;45497;43.996;22.876;2022-11-02T02:44:37;22.92;;;15.82;;
59492;SDS011;45497;43.996;22.876;2022-11-02T02:47:09;28.00;;;16.42;;
59492;SDS011;45497;43.996;22.876;2022-11-02T02:49:55;22.03;;;16.07;;
59492;SDS011;45497;43.996;22.876;2022-11-02T02:52:26;24.95;;;15.85;;
59492;SDS011;45497;43.996;22.876;2022-11-02T02:54:54;24.40;;;15.10;;
59492;SDS011;45497;43.996;22.876;2022-11-02T02:57:24;23.15;;;14.90;;
59492;SDS011;45497;43.996;22.876;2022-11-02T02:59:54;20.02;;;14.98;;
59492;SDS011;45497;43.996;22.876;2022-11-02T03:02:20;22.13;;;14.97;;
59492;SDS011;45497;43.996;22.876;2022-11-02T03:04:49;23.98;;;14.93;;
59492;SDS011;45497;43.996;22.876;2022-11-02T03:07:33;21.17;;;14.32;;
59492;SDS011;45497;43.996;22.876;2022-11-02T03:15:40;22.00;;;14.38;;
59492;SDS011;45497;43.996;22.876;2022-11-02T03:24:13;20.35;;;14.20;;
59492;SDS011;45497;43.996;22.876;2022-11-02T03:29:41;18.20;;;13.33;;
59492;SDS011;45497;43.996;22.876;2022-11-02T03:32:24;18.85;;;13.38;;
59492;SDS011;45497;43.996;22.876;2022-11-02T03:34:58;19.27;;;13.05;;
59492;SDS011;45497;43.996;22.876;2022-11-02T03:37:37;23.07;;;14.00;;
59492;SDS011;45497;43.996;22.876;2022-11-02T03:40:09;19.42;;;13.73;;
59492;SDS011;45497;43.996;22.876;2022-11-02T03:42:39;20.48;;;13.82;;
59492;SDS011;45497;43.996;22.876;2022-11-02T03:45:08;18.95;;;13.35;;
59492;SDS011;45497;43.996;22.876;2022-11-02T03:47:37;17.55;;;12.55;;
59492;SDS011;45497;43.996;22.876;2022-11-02T03:50:05;18.70;;;11.85;;
59492;SDS011;45497;43.996;22.876;2022-11-02T03:52:33;18.88;;;13.02;;
59492;SDS011;45497;43.996;22.876;2022-11-02T03:55:04;17.85;;;12.85;;
59492;SDS011;45497;43.996;22.876;2022-11-02T03:57:37;20.67;;;12.75;;
59492;SDS011;45497;43.996;22.876;2022-11-02T04:02:35;18.02;;;11.73;;
59492;SDS011;45497;43.996;22.876;2022-11-02T04:05:03;20.40;;;12.27;;
59492;SDS011;45497;43.996;22.876;2022-11-02T04:07:30;18.17;;;12.70;;
59492;SDS011;45497;43.996;22.876;2022-11-02T04:10:18;15.87;;;11.93;;
59492;SDS011;45497;43.996;22.876;2022-11-02T04:12:44;22.57;;;11.97;;
59492;SDS011;45497;43.996;22.876;2022-11-02T04:15:28;14.87;;;10.67;;
59492;SDS011;45497;43.996;22.876;2022-11-02T04:17:53;18.63;;;13.33;;
59492;SDS011;45497;43.996;22.876;2022-11-02T04:20:37;21.73;;;14.05;;
59492;SDS011;45497;43.996;22.876;2022-11-02T04:23:03;22.58;;;14.40;;
59492;SDS011;45497;43.996;22.876;2022-11-02T04:25:51;23.08;;;14.73;;
59492;SDS011;45497;43.996;22.876;2022-11-02T04:28:19;23.27;;;14.80;;
59492;SDS011;45497;43.996;22.876;2022-11-02T04:30:45;23.00;;;15.77;;
59492;SDS011;45497;43.996;22.876;2022-11-02T04:33:11;20.90;;;15.37;;
59492;SDS011;45497;43.996;22.876;2022-11-02T04:35:55;18.50;;;15.43;;
59492;SDS011;45497;43.996;22.876;2022-11-02T04:38:22;22.33;;;15.23;;
59492;SDS011;45497;43.996;22.876;2022-11-02T04:43:57;23.15;;;15.73;;
59492;SDS011;45497;43.996;22.876;2022-11-02T04:46:23;21.90;;;15.63;;
59492;SDS011;45497;43.996;22.876;2022-11-02T04:48:50;27.40;;;15.27;;
59492;SDS011;45497;43.996;22.876;2022-11-02T04:51:16;22.92;;;15.80;;
59492;SDS011;45497;43.996;22.876;2022-11-02T04:53:44;23.02;;;16.20;;
59492;SDS011;45497;43.996;22.876;2022-11-02T04:56:10;19.80;;;14.80;;
59492;SDS011;45497;43.996;22.876;2022-11-02T04:58:36;21.53;;;14.40;;
59492;SDS011;45497;43.996;22.876;2022-11-02T05:01:05;27.40;;;17.27;;
59492;SDS011;45497;43.996;22.876;2022-11-02T05:03:37;27.05;;;19.40;;
59492;SDS011;45497;43.996;22.876;2022-11-02T05:06:03;38.30;;;27.37;;
59492;SDS011;45497;43.996;22.876;2022-11-02T05:08:29;29.63;;;21.07;;
59492;SDS011;45497;43.996;22.876;2022-11-02T05:10:56;29.13;;;20.80;;
59492;SDS011;45497;43.996;22.876;2022-11-02T05:13:24;27.67;;;17.23;;
59492;SDS011;45497;43.996;22.876;2022-11-02T05:15:54;22.58;;;15.82;;
59492;SDS011;45497;43.996;22.876;2022-11-02T05:18:20;24.85;;;15.40;;
59492;SDS011;45497;43.996;22.876;2022-11-02T05:20:52;25.47;;;15.83;;
59492;SDS011;45497;43.996;22.876;2022-11-02T05:23:20;21.83;;;15.25;;
59492;SDS011;45497;43.996;22.876;2022-11-02T05:25:56;25.63;;;16.67;;
59492;SDS011;45497;43.996;22.876;2022-11-02T05:28:35;25.73;;;18.00;;
59492;SDS011;45497;43.996;22.876;2022-11-02T05:31:01;26.43;;;17.00;;
59492;SDS011;45497;43.996;22.876;2022-11-02T05:33:27;27.58;;;18.35;;
59492;SDS011;45497;43.996;22.876;2022-11-02T05:35:54;25.00;;;17.33;;
59492;SDS011;45497;43.996;22.876;2022-11-02T05:38:24;24.77;;;17.40;;
59492;SDS011;45497;43.996;22.876;2022-11-02T05:40:55;25.52;;;16.95;;
59492;SDS011;45497;43.996;22.876;2022-11-02T05:43:22;26.17;;;17.85;;
59492;SDS011;45497;43.996;22.876;2022-11-02T05:45:55;25.90;;;18.30;;
59492;SDS011;45497;43.996;22.876;2022-11-02T05:48:22;26.20;;;19.58;;
59492;SDS011;45497;43.996;22.876;2022-11-02T05:50:53;25.50;;;18.35;;
59492;SDS011;45497;43.996;22.876;2022-11-02T05:53:20;26.15;;;18.50;;
59492;SDS011;45497;43.996;22.876;2022-11-02T05:55:45;29.63;;;19.27;;
59492;SDS011;45497;43.996;22.876;2022-11-02T05:58:11;27.70;;;18.13;;
59492;SDS011;45497;43.996;22.876;2022-11-02T06:00:37;29.23;;;19.13;;
59492;SDS011;45497;43.996;22.876;2022-11-02T06:03:03;30.45;;;19.45;;
59492;SDS011;45497;43.996;22.876;2022-11-02T06:05:29;29.50;;;18.93;;
59492;SDS011;45497;43.996;22.876;2022-11-02T06:07:58;30.23;;;19.47;;
59492;SDS011;45497;43.996;22.876;2022-11-02T06:10:25;30.05;;;19.30;;
59492;SDS011;45497;43.996;22.876;2022-11-02T06:12:58;28.30;;;18.88;;
59492;SDS011;45497;43.996;22.876;2022-11-02T06:15:25;26.83;;;18.55;;
59492;SDS011;45497;43.996;22.876;2022-11-02T06:17:52;30.63;;;19.30;;
59492;SDS011;45497;43.996;22.876;2022-11-02T06:20:19;28.97;;;18.63;;
59492;SDS011;45497;43.996;22.876;2022-11-02T06:22:45;29.20;;;18.75;;
59492;SDS011;45497;43.996;22.876;2022-11-02T06:25:14;31.13;;;18.00;;
59492;SDS011;45497;43.996;22.876;2022-11-02T06:27:41;25.75;;;18.13;;
59492;SDS011;45497;43.996;22.876;2022-11-02T06:30:19;27.02;;;18.42;;
59492;SDS011;45497;43.996;22.876;2022-11-02T06:32:48;27.55;;;18.73;;
59492;SDS011;45497;43.996;22.876;2022-11-02T06:35:16;30.00;;;19.13;;
59492;SDS011;45497;43.996;22.876;2022-11-02T06:37:44;29.20;;;18.50;;
59492;SDS011;45497;43.996;22.876;2022-11-02T06:40:10;32.63;;;19.70;;
59492;SDS011;45497;43.996;22.876;2022-11-02T06:42:37;31.02;;;22.02;;
59492;SDS011;45497;43.996;22.876;2022-11-02T06:45:04;40.53;;;25.33;;
59492;SDS011;45497;43.996;22.876;2022-11-02T06:47:32;42.33;;;25.58;;
59492;SDS011;45497;43.996;22.876;2022-11-02T06:49:59;35.63;;;24.67;;
59492;SDS011;45497;43.996;22.876;2022-11-02T06:52:28;64.83;;;40.07;;
59492;SDS011;45497;43.996;22.876;2022-11-02T06:54:54;30.90;;;20.13;;
59492;SDS011;45497;43.996;22.876;2022-11-02T06:57:20;108.68;;;71.50;;
59492;SDS011;45497;43.996;22.876;2022-11-02T06:59:47;43.50;;;25.50;;
59492;SDS011;45497;43.996;22.876;2022-11-02T07:02:14;47.03;;;25.83;;
59492;SDS011;45497;43.996;22.876;2022-11-02T07:04:39;55.40;;;32.10;;
59492;SDS011;45497;43.996;22.876;2022-11-02T07:07:05;57.90;;;31.73;;
59492;SDS011;45497;43.996;22.876;2022-11-02T07:09:31;47.80;;;31.30;;
59492;SDS011;45497;43.996;22.876;2022-11-02T07:11:57;41.95;;;29.08;;
59492;SDS011;45497;43.996;22.876;2022-11-02T07:14:23;37.80;;;23.30;;
59492;SDS011;45497;43.996;22.876;2022-11-02T07:16:49;39.60;;;24.38;;
59492;SDS011;45497;43.996;22.876;2022-11-02T07:19:15;35.00;;;23.50;;
59492;SDS011;45497;43.996;22.876;2022-11-02T07:21:40;33.97;;;21.27;;
59492;SDS011;45497;43.996;22.876;2022-11-02T07:24:06;29.98;;;22.13;;
59492;SDS011;45497;43.996;22.876;2022-11-02T07:26:31;33.93;;;20.30;;
59492;SDS011;45497;43.996;22.876;2022-11-02T07:28:57;29.97;;;19.03;;
59492;SDS011;45497;43.996;22.876;2022-11-02T07:31:22;33.50;;;20.03;;
59492;SDS011;45497;43.996;22.876;2022-11-02T07:33:48;30.33;;;20.17;;
59492;SDS011;45497;43.996;22.876;2022-11-02T07:36:14;30.95;;;19.38;;
59492;SDS011;45497;43.996;22.876;2022-11-02T07:38:40;36.30;;;21.30;;
59492;SDS011;45497;43.996;22.876;2022-11-02T07:41:07;30.20;;;19.77;;
59492;SDS011;45497;43.996;22.876;2022-11-02T07:43:33;34.17;;;19.23;;
59492;SDS011;45497;43.996;22.876;2022-11-02T07:46:00;30.53;;;19.20;;
59492;SDS011;45497;43.996;22.876;2022-11-02T07:48:27;30.83;;;20.63;;
59492;SDS011;45497;43.996;22.876;2022-11-02T07:50:52;31.07;;;18.73;;
59492;SDS011;45497;43.996;22.876;2022-11-02T07:53:18;25.83;;;18.20;;
59492;SDS011;45497;43.996;22.876;2022-11-02T07:55:43;29.27;;;18.37;;
59492;SDS011;45497;43.996;22.876;2022-11-02T07:58:09;26.13;;;18.40;;
59492;SDS011;45497;43.996;22.876;2022-11-02T08:00:38;25.40;;;19.42;;
59492;SDS011;45497;43.996;22.876;2022-11-02T08:03:07;27.00;;;18.08;;
59492;SDS011;45497;43.996;22.876;2022-11-02T08:05:35;26.60;;;17.45;;
59492;SDS011;45497;43.996;22.876;2022-11-02T08:08:04;25.48;;;17.45;;
59492;SDS011;45497;43.996;22.876;2022-11-02T08:10:41;25.40;;;17.23;;
59492;SDS011;45497;43.996;22.876;2022-11-02T08:13:08;26.83;;;17.75;;
59492;SDS011;45497;43.996;22.876;2022-11-02T08:15:50;27.23;;;18.52;;
59492;SDS011;45497;43.996;22.876;2022-11-02T08:18:18;27.63;;;19.40;;
59492;SDS011;45497;43.996;22.876;2022-11-02T08:20:48;23.60;;;17.58;;
59492;SDS011;45497;43.996;22.876;2022-11-02T08:23:14;25.67;;;18.17;;
59492;SDS011;45497;43.996;22.876;2022-11-02T08:25:41;28.80;;;18.23;;
59492;SDS011;45497;43.996;22.876;2022-11-02T08:28:26;25.17;;;16.42;;
59492;SDS011;45497;43.996;22.876;2022-11-02T08:30:57;27.33;;;16.40;;
59492;SDS011;45497;43.996;22.876;2022-11-02T08:33:23;26.45;;;16.55;;
59492;SDS011;45497;43.996;22.876;2022-11-02T08:35:49;22.92;;;16.25;;
59492;SDS011;45497;43.996;22.876;2022-11-02T08:38:15;23.80;;;14.75;;
59492;SDS011;45497;43.996;22.876;2022-11-02T08:40:42;24.80;;;14.35;;
59492;SDS011;45497;43.996;22.876;2022-11-02T08:43:09;19.15;;;14.10;;
59492;SDS011;45497;43.996;22.876;2022-11-02T08:45:37;21.05;;;13.65;;
59492;SDS011;45497;43.996;22.876;2022-11-02T08:48:04;18.98;;;13.32;;
59492;SDS011;45497;43.996;22.876;2022-11-02T08:50:30;18.17;;;12.80;;
59492;SDS011;45497;43.996;22.876;2022-11-02T08:52:56;19.17;;;12.95;;
59492;SDS011;45497;43.996;22.876;2022-11-02T08:55:22;20.73;;;12.90;;
59492;SDS011;45497;43.996;22.876;2022-11-02T08:57:48;16.95;;;11.80;;
59492;SDS011;45497;43.996;22.876;2022-11-02T09:00:18;15.43;;;11.50;;
59492;SDS011;45497;43.996;22.876;2022-11-02T09:05:30;21.42;;;11.05;;
59492;SDS011;45497;43.996;22.876;2022-11-02T09:08:02;19.25;;;10.85;;
59492;SDS011;45497;43.996;22.876;2022-11-02T09:10:29;22.73;;;9.45;;
59492;SDS011;45497;43.996;22.876;2022-11-02T09:12:57;16.95;;;10.10;;
59492;SDS011;45497;43.996;22.876;2022-11-02T09:15:24;17.25;;;8.65;;
59492;SDS011;45497;43.996;22.876;2022-11-02T09:17:49;15.87;;;9.00;;
59492;SDS011;45497;43.996;22.876;2022-11-02T09:20:15;15.13;;;8.98;;
59492;SDS011;45497;43.996;22.876;2022-11-02T09:22:43;13.37;;;7.90;;
59492;SDS011;45497;43.996;22.876;2022-11-02T09:25:12;18.58;;;8.80;;
59492;SDS011;45497;43.996;22.876;2022-11-02T09:27:38;11.98;;;5.47;;
59492;SDS011;45497;43.996;22.876;2022-11-02T09:30:04;12.73;;;5.35;;
59492;SDS011;45497;43.996;22.876;2022-11-02T09:32:31;13.50;;;5.28;;
59492;SDS011;45497;43.996;22.876;2022-11-02T09:35:00;14.15;;;5.05;;
59492;SDS011;45497;43.996;22.876;2022-11-02T09:37:27;12.82;;;4.90;;
59492;SDS011;45497;43.996;22.876;2022-11-02T09:39:53;13.90;;;5.10;;
59492;SDS011;45497;43.996;22.876;2022-11-02T09:45:07;12.15;;;4.80;;
59492;SDS011;45497;43.996;22.876;2022-11-02T09:47:42;9.20;;;4.43;;
59492;SDS011;45497;43.996;22.876;2022-11-02T09:50:15;12.93;;;5.00;;
59492;SDS011;45497;43.996;22.876;2022-11-02T09:52:46;12.35;;;4.95;;
59492;SDS011;45497;43.996;22.876;2022-11-02T09:55:22;14.13;;;4.60;;
59492;SDS011;45497;43.996;22.876;2022-11-02T09:58:03;10.30;;;3.80;;
59492;SDS011;45497;43.996;22.876;2022-11-02T10:00:36;10.85;;;3.63;;
59492;SDS011;45497;43.996;22.876;2022-11-02T10:16:49;10.48;;;3.60;;
59492;SDS011;45497;43.996;22.876;2022-11-02T10:19:17;6.43;;;3.20;;
59492;SDS011;45497;43.996;22.876;2022-11-02T10:21:48;7.38;;;3.40;;
59492;SDS011;45497;43.996;22.876;2022-11-02T10:26:59;7.55;;;3.90;;
59492;SDS011;45497;43.996;22.876;2022-11-02T10:32:27;8.77;;;3.40;;
59492;SDS011;45497;43.996;22.876;2022-11-02T10:34:56;7.13;;;3.35;;
59492;SDS011;45497;43.996;22.876;2022-11-02T10:37:27;9.20;;;3.25;;
59492;SDS011;45497;43.996;22.876;2022-11-02T10:43:16;13.05;;;3.90;;
59492;SDS011;45497;43.996;22.876;2022-11-02T10:51:34;7.80;;;3.75;;
59492;SDS011;45497;43.996;22.876;2022-11-02T10:54:00;9.37;;;3.30;;
59492;SDS011;45497;43.996;22.876;2022-11-02T10:56:31;7.05;;;3.58;;
59492;SDS011;45497;43.996;22.876;2022-11-02T11:01:24;7.88;;;4.07;;
59492;SDS011;45497;43.996;22.876;2022-11-02T11:03:51;13.05;;;4.30;;
59492;SDS011;45497;43.996;22.876;2022-11-02T11:06:17;8.25;;;4.25;;
59492;SDS011;45497;43.996;22.876;2022-11-02T11:08:43;8.95;;;4.43;;
59492;SDS011;45497;43.996;22.876;2022-11-02T11:11:16;7.25;;;3.78;;
59492;SDS011;45497;43.996;22.876;2022-11-02T11:13:56;9.18;;;3.70;;
59492;SDS011;45497;43.996;22.876;2022-11-02T11:16:39;6.63;;;3.33;;
59492;SDS011;45497;43.996;22.876;2022-11-02T11:19:21;10.13;;;3.42;;
59492;SDS011;45497;43.996;22.876;2022-11-02T11:21:54;6.90;;;2.97;;
59492;SDS011;45497;43.996;22.876;2022-11-02T11:27:00;9.13;;;3.05;;
59492;SDS011;45497;43.996;22.876;2022-11-02T11:29:45;6.25;;;2.70;;
59492;SDS011;45497;43.996;22.876;2022-11-02T11:32:22;9.73;;;3.03;;
59492;SDS011;45497;43.996;22.876;2022-11-02T11:34:52;9.35;;;3.17;;
59492;SDS011;45497;43.996;22.876;2022-11-02T11:37:19;12.27;;;3.13;;
59492;SDS011;45497;43.996;22.876;2022-11-02T11:39:45;10.10;;;3.15;;
59492;SDS011;45497;43.996;22.876;2022-11-02T11:42:19;7.85;;;3.13;;
59492;SDS011;45497;43.996;22.876;2022-11-02T11:44:53;7.53;;;2.53;;
59492;SDS011;45497;43.996;22.876;2022-11-02T11:47:39;9.55;;;3.05;;
59492;SDS011;45497;43.996;22.876;2022-11-02T11:50:13;10.18;;;2.90;;
59492;SDS011;45497;43.996;22.876;2022-11-02T11:52:41;7.90;;;3.03;;
59492;SDS011;45497;43.996;22.876;2022-11-02T11:58:10;9.30;;;2.80;;
59492;SDS011;45497;43.996;22.876;2022-11-02T12:00:40;11.13;;;2.90;;
59492;SDS011;45497;43.996;22.876;2022-11-02T12:03:10;9.38;;;2.92;;
59492;SDS011;45497;43.996;22.876;2022-11-02T12:08:48;9.43;;;4.40;;
59492;SDS011;45497;43.996;22.876;2022-11-02T12:14:02;9.82;;;3.13;;
59492;SDS011;45497;43.996;22.876;2022-11-02T12:16:47;8.43;;;4.05;;
59492;SDS011;45497;43.996;22.876;2022-11-02T12:22:13;11.57;;;5.10;;
59492;SDS011;45497;43.996;22.876;2022-11-02T12:25:15;13.65;;;6.15;;
59492;SDS011;45497;43.996;22.876;2022-11-02T12:28:05;14.43;;;6.35;;
59492;SDS011;45497;43.996;22.876;2022-11-02T12:33:32;12.87;;;7.33;;
59492;SDS011;45497;43.996;22.876;2022-11-02T12:39:07;15.18;;;9.20;;
59492;SDS011;45497;43.996;22.876;2022-11-02T12:41:51;15.67;;;7.93;;
59492;SDS011;45497;43.996;22.876;2022-11-02T12:49:56;6.30;;;4.90;;
59492;SDS011;45497;43.996;22.876;2022-11-02T12:55:11;14.70;;;4.72;;
59492;SDS011;45497;43.996;22.876;2022-11-02T12:57:41;7.60;;;4.68;;
59492;SDS011;45497;43.996;22.876;2022-11-02T13:00:18;10.88;;;4.70;;
59492;SDS011;45497;43.996;22.876;2022-11-02T13:02:48;8.87;;;5.00;;
59492;SDS011;45497;43.996;22.876;2022-11-02T13:05:29;10.27;;;4.90;;
59492;SDS011;45497;43.996;22.876;2022-11-02T13:08:16;7.78;;;3.60;;
59492;SDS011;45497;43.996;22.876;2022-11-02T13:10:45;10.23;;;4.47;;
59492;SDS011;45497;43.996;22.876;2022-11-02T13:13:26;8.07;;;4.20;;
59492;SDS011;45497;43.996;22.876;2022-11-02T13:15:58;6.40;;;3.45;;
59492;SDS011;45497;43.996;22.876;2022-11-02T13:18:28;8.20;;;3.85;;
59492;SDS011;45497;43.996;22.876;2022-11-02T13:20:58;8.02;;;3.97;;
59492;SDS011;45497;43.996;22.876;2022-11-02T13:26:08;12.18;;;5.45;;
59492;SDS011;45497;43.996;22.876;2022-11-02T13:28:46;6.72;;;4.22;;
59492;SDS011;45497;43.996;22.876;2022-11-02T13:31:24;11.52;;;5.43;;
59492;SDS011;45497;43.996;22.876;2022-11-02T13:33:52;9.02;;;4.90;;
59492;SDS011;45497;43.996;22.876;2022-11-02T13:36:20;10.43;;;4.30;;
59492;SDS011;45497;43.996;22.876;2022-11-02T13:47:14;9.27;;;4.80;;
59492;SDS011;45497;43.996;22.876;2022-11-02T13:49:49;8.57;;;5.60;;
59492;SDS011;45497;43.996;22.876;2022-11-02T13:52:35;10.25;;;5.78;;
59492;SDS011;45497;43.996;22.876;2022-11-02T13:55:04;8.82;;;5.70;;
59492;SDS011;45497;43.996;22.876;2022-11-02T13:57:38;9.73;;;5.90;;
59492;SDS011;45497;43.996;22.876;2022-11-02T14:00:23;8.27;;;5.32;;
59492;SDS011;45497;43.996;22.876;2022-11-02T14:02:55;8.07;;;5.33;;
59492;SDS011;45497;43.996;22.876;2022-11-02T14:05:33;9.02;;;5.43;;
59492;SDS011;45497;43.996;22.876;2022-11-02T14:08:08;8.70;;;5.60;;
59492;SDS011;45497;43.996;22.876;2022-11-02T14:10:42;10.53;;;6.03;;
59492;SDS011;45497;43.996;22.876;2022-11-02T14:13:14;10.88;;;5.80;;
59492;SDS011;45497;43.996;22.876;2022-11-02T14:15:42;9.05;;;6.05;;
59492;SDS011;45497;43.996;22.876;2022-11-02T14:18:12;12.18;;;6.00;;
59492;SDS011;45497;43.996;22.876;2022-11-02T14:20:41;9.80;;;6.05;;
59492;SDS011;45497;43.996;22.876;2022-11-02T14:25:49;8.65;;;6.07;;
59492;SDS011;45497;43.996;22.876;2022-11-02T14:30:45;11.52;;;7.00;;
59492;SDS011;45497;43.996;22.876;2022-11-02T14:35:55;14.95;;;7.07;;
59492;SDS011;45497;43.996;22.876;2022-11-02T14:38:37;14.15;;;7.22;;
59492;SDS011;45497;43.996;22.876;2022-11-02T14:44:08;10.00;;;6.83;;
59492;SDS011;45497;43.996;22.876;2022-11-02T14:47:25;13.23;;;7.70;;
59492;SDS011;45497;43.996;22.876;2022-11-02T14:52:32;12.15;;;7.60;;
59492;SDS011;45497;43.996;22.876;2022-11-02T14:55:20;13.35;;;8.07;;
59492;SDS011;45497;43.996;22.876;2022-11-02T14:57:53;13.80;;;8.40;;
59492;SDS011;45497;43.996;22.876;2022-11-02T15:00:31;18.45;;;10.80;;
59492;SDS011;45497;43.996;22.876;2022-11-02T15:03:02;17.98;;;12.93;;
59492;SDS011;45497;43.996;22.876;2022-11-02T15:15:42;12.27;;;5.03;;
59492;SDS011;45497;43.996;22.876;2022-11-02T15:31:54;8.23;;;4.13;;
59492;SDS011;45497;43.996;22.876;2022-11-02T15:34:29;10.20;;;6.30;;
59492;SDS011;45497;43.996;22.876;2022-11-02T15:37:16;11.05;;;4.65;;
59492;SDS011;45497;43.996;22.876;2022-11-02T15:39:50;8.60;;;4.53;;
59492;SDS011;45497;43.996;22.876;2022-11-02T15:42:42;11.57;;;4.70;;
59492;SDS011;45497;43.996;22.876;2022-11-02T15:45:41;9.70;;;4.78;;
59492;SDS011;45497;43.996;22.876;2022-11-02T15:50:58;10.98;;;4.60;;
59492;SDS011;45497;43.996;22.876;2022-11-02T16:01:44;9.52;;;4.68;;
59492;SDS011;45497;43.996;22.876;2022-11-02T16:04:18;10.23;;;4.30;;
59492;SDS011;45497;43.996;22.876;2022-11-02T16:06:47;26.42;;;16.30;;
59492;SDS011;45497;43.996;22.876;2022-11-02T16:12:18;16.98;;;5.15;;
59492;SDS011;45497;43.996;22.876;2022-11-02T16:15:01;8.90;;;4.90;;
59492;SDS011;45497;43.996;22.876;2022-11-02T16:17:36;14.35;;;6.68;;
59492;SDS011;45497;43.996;22.876;2022-11-02T16:20:16;11.10;;;4.57;;
59492;SDS011;45497;43.996;22.876;2022-11-02T16:23:02;11.27;;;4.30;;
59492;SDS011;45497;43.996;22.876;2022-11-02T16:25:47;8.55;;;4.57;;
59492;SDS011;45497;43.996;22.876;2022-11-02T16:33:37;7.75;;;4.20;;
59492;SDS011;45497;43.996;22.876;2022-11-02T16:36:08;8.68;;;4.93;;
59492;SDS011;45497;43.996;22.876;2022-11-02T16:38:35;8.77;;;5.35;;
59492;SDS011;45497;43.996;22.876;2022-11-02T16:41:03;8.27;;;5.03;;
59492;SDS011;45497;43.996;22.876;2022-11-02T16:43:33;7.93;;;4.85;;
59492;SDS011;45497;43.996;22.876;2022-11-02T16:46:01;6.70;;;4.27;;
59492;SDS011;45497;43.996;22.876;2022-11-02T16:48:29;10.13;;;4.43;;
59492;SDS011;45497;43.996;22.876;2022-11-02T16:53:52;11.23;;;4.22;;
59492;SDS011;45497;43.996;22.876;2022-11-02T16:58:54;9.48;;;4.55;;
59492;SDS011;45497;43.996;22.876;2022-11-02T17:01:25;16.10;;;9.50;;
59492;SDS011;45497;43.996;22.876;2022-11-02T17:03:53;10.45;;;4.65;;
59492;SDS011;45497;43.996;22.876;2022-11-02T17:06:19;10.23;;;4.57;;
59492;SDS011;45497;43.996;22.876;2022-11-02T17:08:54;28.20;;;20.87;;
59492;SDS011;45497;43.996;22.876;2022-11-02T17:11:20;17.50;;;9.38;;
59492;SDS011;45497;43.996;22.876;2022-11-02T17:13:51;8.93;;;4.50;;
59492;SDS011;45497;43.996;22.876;2022-11-02T17:16:19;10.50;;;4.57;;
59492;SDS011;45497;43.996;22.876;2022-11-02T17:18:44;12.93;;;6.43;;
59492;SDS011;45497;43.996;22.876;2022-11-02T17:23:56;9.57;;;4.93;;
59492;SDS011;45497;43.996;22.876;2022-11-02T17:26:27;11.85;;;5.13;;
59492;SDS011;45497;43.996;22.876;2022-11-02T17:33:52;16.92;;;7.32;;
59492;SDS011;45497;43.996;22.876;2022-11-02T17:36:18;21.63;;;9.68;;
59492;SDS011;45497;43.996;22.876;2022-11-02T17:38:44;7.95;;;5.13;;
59492;SDS011;45497;43.996;22.876;2022-11-02T17:41:10;11.80;;;6.40;;